Time;durP1;ratioP1;P1;durP2;ratioP2;P2;SDS_P1;SDS_P2;PMS_P1;PMS_P2;Temp;Humidity;BMP_temperature;BMP_pressure;BME280_temperature;BME280_humidity;BME280_pressure;Samples;Min_cycle;Max_cycle;Signal;HPM_P1;HPM_P2
2021/07/10 00:01:57;;;;;;;18.58;14.75;;;16.10;99.90;;;;;;5117637;27;20043;-71
2021/07/10 00:04:23;;;;;;;19.20;14.43;;;16.10;99.90;;;;;;5117613;28;20044;-71
2021/07/10 00:06:48;;;;;;;22.42;16.40;;;16.10;99.90;;;;;;5117093;28;20164;-70
2021/07/10 00:09:14;;;;;;;22.30;15.57;;;16.00;99.90;;;;;;5116552;28;20050;-71
2021/07/10 00:11:40;;;;;;;21.85;15.02;;;16.00;99.90;;;;;;5117048;28;20098;-71
2021/07/10 00:14:06;;;;;;;21.90;14.68;;;15.90;99.90;;;;;;5117556;28;20460;-71
2021/07/10 00:16:33;;;;;;;22.08;15.50;;;15.90;99.90;;;;;;5117386;28;20042;-71
2021/07/10 00:18:59;;;;;;;23.35;16.02;;;16.00;99.90;;;;;;5116378;28;20092;-71
2021/07/10 00:21:25;;;;;;;22.80;16.25;;;16.00;99.90;;;;;;5116649;28;20583;-71
2021/07/10 00:23:51;;;;;;;22.73;16.35;;;16.00;99.90;;;;;;5116538;28;20127;-71
2021/07/10 00:26:17;;;;;;;21.35;15.70;;;16.00;99.90;;;;;;5116743;28;20047;-71
2021/07/10 00:28:43;;;;;;;22.25;16.27;;;16.00;99.90;;;;;;5116529;28;20433;-70
2021/07/10 00:31:09;;;;;;;24.30;16.60;;;16.00;99.90;;;;;;5116651;28;20036;-71
2021/07/10 00:33:35;;;;;;;25.00;18.05;;;16.00;99.90;;;;;;5117381;28;20047;-72
2021/07/10 00:36:00;;;;;;;25.02;16.95;;;16.00;99.90;;;;;;5116668;28;20035;-72
2021/07/10 00:38:29;;;;;;;22.45;16.55;;;15.90;99.90;;;;;;5116324;28;20031;-73
2021/07/10 00:40:55;;;;;;;20.95;15.55;;;15.90;99.90;;;;;;5116283;27;20035;-70
2021/07/10 00:43:21;;;;;;;22.35;15.80;;;15.90;99.90;;;;;;5116241;28;20151;-70
2021/07/10 00:45:47;;;;;;;22.50;16.48;;;16.00;99.90;;;;;;5116611;28;20039;-71
2021/07/10 00:48:13;;;;;;;20.63;15.77;;;15.90;99.90;;;;;;5116567;28;20035;-72
2021/07/10 00:50:39;;;;;;;20.17;14.77;;;15.90;99.90;;;;;;5115711;28;20163;-71
2021/07/10 00:53:05;;;;;;;19.10;14.45;;;15.90;99.90;;;;;;5116361;28;20048;-71
2021/07/10 00:55:30;;;;;;;24.20;17.02;;;15.90;99.90;;;;;;5116428;27;20032;-71
2021/07/10 00:57:58;;;;;;;24.50;17.30;;;15.80;99.90;;;;;;5116123;28;20035;-72
2021/07/10 01:00:24;;;;;;;32.28;21.98;;;15.80;99.90;;;;;;5115555;28;20039;-72
2021/07/10 01:02:52;;;;;;;33.03;22.30;;;15.80;99.90;;;;;;5116653;28;20035;-72
2021/07/10 01:05:29;;;;;;;34.65;23.60;;;15.80;99.90;;;;;;5115989;27;20039;-72
2021/07/10 01:07:56;;;;;;;37.63;24.02;;;15.80;99.90;;;;;;5116145;28;20039;-71
2021/07/10 01:10:24;;;;;;;42.00;26.05;;;15.80;99.90;;;;;;5115454;28;20036;-72
2021/07/10 01:12:54;;;;;;;37.88;23.38;;;15.80;99.90;;;;;;5115846;28;20126;-72
2021/07/10 01:15:22;;;;;;;38.45;24.45;;;15.90;99.90;;;;;;5116385;28;20082;-72
2021/07/10 01:17:48;;;;;;;37.85;24.17;;;15.90;99.90;;;;;;5115602;28;20035;-72
2021/07/10 01:20:21;;;;;;;39.05;24.40;;;15.90;99.90;;;;;;5115191;28;20084;-72
2021/07/10 01:22:47;;;;;;;;;;;15.90;99.90;;;;;;5115938;28;20377;-71
2021/07/10 01:25:17;;;;;;;40.15;25.58;;;15.80;99.90;;;;;;5115370;28;19968;-73
2021/07/10 01:27:44;;;;;;;43.78;27.05;;;15.70;99.90;;;;;;5116096;28;20480;-72
2021/07/10 01:30:13;;;;;;;50.17;27.38;;;15.70;99.90;;;;;;5114953;28;20060;-72
2021/07/10 01:32:40;;;;;;;44.75;27.55;;;15.80;99.90;;;;;;5115922;28;20485;-71
2021/07/10 01:35:07;;;;;;;46.55;27.27;;;15.80;99.90;;;;;;5115646;28;20134;-70
2021/07/10 01:37:33;;;;;;;40.08;25.10;;;15.80;99.90;;;;;;5115185;28;20096;-71
2021/07/10 01:39:59;;;;;;;45.75;28.25;;;15.70;99.90;;;;;;5115018;28;20036;-71
2021/07/10 01:42:24;;;;;;;45.38;27.77;;;15.70;99.90;;;;;;5116056;28;20102;-71
2021/07/10 01:44:51;;;;;;;44.85;27.52;;;15.70;99.90;;;;;;5115039;27;20475;-71
2021/07/10 01:47:18;;;;;;;47.40;28.83;;;15.70;99.90;;;;;;5115050;28;20043;-71
2021/07/10 01:49:44;;;;;;;44.47;28.05;;;15.70;99.90;;;;;;5114636;28;20479;-71
2021/07/10 01:52:10;;;;;;;48.75;27.90;;;15.80;99.90;;;;;;5115544;28;20039;-71
2021/07/10 01:54:35;;;;;;;45.67;27.30;;;15.70;99.90;;;;;;5115273;28;20035;-71
2021/07/10 01:57:06;;;;;;;42.22;27.35;;;15.80;99.90;;;;;;5114824;28;20040;-71
2021/07/10 01:59:32;;;;;;;42.38;26.50;;;15.70;99.90;;;;;;5115099;27;20471;-71
2021/07/10 02:01:58;;;;;;;52.30;29.23;;;15.80;99.90;;;;;;5115026;27;20035;-71
2021/07/10 02:04:25;;;;;;;40.97;26.45;;;15.70;99.90;;;;;;5115019;28;20038;-71
2021/07/10 02:06:50;;;;;;;48.05;28.50;;;15.70;99.90;;;;;;5115171;28;20468;-71
2021/07/10 02:09:16;;;;;;;48.58;27.95;;;15.70;99.90;;;;;;5114149;28;20047;-71
2021/07/10 02:11:46;;;;;;;45.75;26.90;;;15.70;99.90;;;;;;5114316;28;20042;-71
2021/07/10 02:14:14;;;;;;;53.70;29.25;;;15.60;99.90;;;;;;5115103;28;20047;-71
2021/07/10 02:16:39;;;;;;;46.10;27.35;;;15.60;99.90;;;;;;5114863;28;20040;-71
2021/07/10 02:19:05;;;;;;;45.92;26.95;;;15.60;99.90;;;;;;5114566;28;20575;-71
2021/07/10 02:21:31;;;;;;;50.75;27.73;;;15.60;99.90;;;;;;5114295;28;20035;-71
2021/07/10 02:23:56;;;;;;;43.78;25.83;;;15.70;99.90;;;;;;5114992;28;20040;-71
2021/07/10 02:26:24;;;;;;;45.08;27.02;;;15.70;99.90;;;;;;5114233;28;20545;-71
2021/07/10 02:28:50;;;;;;;41.80;26.73;;;15.70;99.90;;;;;;5114471;28;20035;-71
2021/07/10 02:31:16;;;;;;;39.50;24.60;;;15.70;99.90;;;;;;5114462;28;20036;-71
2021/07/10 02:33:42;;;;;;;39.38;23.60;;;15.70;99.90;;;;;;5114207;28;20092;-71
2021/07/10 02:36:08;;;;;;;32.95;20.90;;;15.70;99.90;;;;;;5114309;28;20079;-71
2021/07/10 02:38:34;;;;;;;38.53;23.52;;;15.70;99.90;;;;;;5113947;28;20043;-71
2021/07/10 02:41:00;;;;;;;39.83;25.25;;;15.70;99.90;;;;;;5114192;28;20036;-71
2021/07/10 02:43:25;;;;;;;39.45;26.10;;;15.60;99.90;;;;;;5114117;28;20132;-71
2021/07/10 02:45:51;;;;;;;42.22;24.48;;;15.60;99.90;;;;;;5114015;28;20031;-70
2021/07/10 02:48:17;;;;;;;44.38;26.48;;;15.60;99.90;;;;;;5114422;28;20091;-71
2021/07/10 02:50:42;;;;;;;39.63;24.95;;;15.60;99.90;;;;;;5113636;28;20039;-71
2021/07/10 02:53:08;;;;;;;43.47;24.17;;;15.50;99.90;;;;;;5114511;28;20124;-71
2021/07/10 02:55:35;;;;;;;42.47;25.77;;;15.60;99.90;;;;;;5113932;28;20036;-71
2021/07/10 02:58:01;;;;;;;39.33;23.95;;;15.60;99.90;;;;;;5114116;28;20036;-71
2021/07/10 03:00:28;;;;;;;39.90;25.75;;;15.50;99.90;;;;;;5113556;28;20031;-71
2021/07/10 03:02:58;;;;;;;41.20;24.60;;;15.50;99.90;;;;;;5113856;28;20475;-71
2021/07/10 03:05:24;;;;;;;38.80;25.35;;;15.40;99.90;;;;;;5114616;28;20463;-71
2021/07/10 03:07:49;;;;;;;44.20;23.67;;;15.30;99.90;;;;;;5114462;28;20088;-71
2021/07/10 03:10:18;;;;;;;39.08;22.85;;;15.30;99.90;;;;;;5113515;28;20135;-71
2021/07/10 03:12:45;;;;;;;35.30;21.60;;;15.20;99.90;;;;;;5114079;28;20071;-70
2021/07/10 03:15:15;;;;;;;31.23;21.00;;;15.30;99.90;;;;;;5113714;28;20039;-71
2021/07/10 03:17:41;;;;;;;33.38;20.95;;;15.20;99.90;;;;;;5113821;28;20119;-71
2021/07/10 03:20:07;;;;;;;33.50;20.95;;;15.30;99.90;;;;;;5114685;28;20541;-71
2021/07/10 03:22:33;;;;;;;31.50;20.00;;;15.30;99.90;;;;;;5117775;28;20043;-71
2021/07/10 03:25:00;;;;;;;30.95;18.67;;;15.30;99.90;;;;;;5117928;27;20047;-71
2021/07/10 03:27:26;;;;;;;24.10;16.65;;;15.30;99.90;;;;;;5118461;28;20036;-71
2021/07/10 03:29:52;;;;;;;28.13;18.67;;;15.20;99.90;;;;;;5117448;28;20035;-70
2021/07/10 03:32:18;;;;;;;31.67;20.13;;;15.20;99.90;;;;;;5117640;28;20039;-71
2021/07/10 03:34:44;;;;;;;29.50;17.77;;;15.20;99.90;;;;;;5117727;28;20122;-71
2021/07/10 03:37:09;;;;;;;30.55;18.60;;;15.20;99.90;;;;;;5117613;28;20116;-71
2021/07/10 03:39:35;;;;;;;29.02;17.65;;;15.20;99.90;;;;;;5117519;28;20063;-71
2021/07/10 03:42:01;;;;;;;33.08;20.52;;;15.20;99.90;;;;;;5117783;28;20391;-71
2021/07/10 03:44:26;;;;;;;31.27;20.27;;;15.10;99.90;;;;;;5117332;28;20495;-71
2021/07/10 03:46:52;;;;;;;33.30;21.48;;;15.10;99.90;;;;;;5117522;28;20441;-71
2021/07/10 03:49:18;;;;;;;33.00;21.05;;;15.00;99.90;;;;;;5116961;28;20528;-71
2021/07/10 03:51:43;;;;;;;35.28;21.52;;;15.00;99.90;;;;;;5117676;28;20067;-70
2021/07/10 03:54:09;;;;;;;33.08;20.27;;;15.00;99.90;;;;;;5117430;28;20533;-71
2021/07/10 03:56:39;;;;;;;29.63;19.45;;;15.00;99.90;;;;;;5117661;28;20096;-71
2021/07/10 03:59:04;;;;;;;27.52;18.73;;;15.00;99.90;;;;;;5116728;28;20115;-71
2021/07/10 04:01:33;;;;;;;25.40;17.90;;;15.00;99.90;;;;;;5117303;28;20036;-71
2021/07/10 04:04:00;;;;;;;28.63;17.50;;;15.00;99.90;;;;;;5117627;27;20044;-71
2021/07/10 04:06:26;;;;;;;28.23;19.30;;;15.00;99.90;;;;;;5117036;28;20094;-71
2021/07/10 04:08:52;;;;;;;30.73;19.10;;;15.00;99.90;;;;;;5116612;28;20491;-71
2021/07/10 04:11:18;;;;;;;25.60;17.13;;;15.00;99.90;;;;;;5117042;27;20089;-71
2021/07/10 04:13:44;;;;;;;23.80;17.20;;;15.00;99.90;;;;;;5116088;28;20120;-71
2021/07/10 04:16:09;;;;;;;29.15;18.55;;;15.00;99.90;;;;;;5116422;28;20039;-70
2021/07/10 04:18:37;;;;;;;25.48;18.33;;;15.00;99.90;;;;;;5110647;28;20040;-71
2021/07/10 04:21:04;;;;;;;21.90;15.60;;;15.00;99.90;;;;;;5115617;28;20035;-71
2021/07/10 04:23:30;;;;;;;19.77;14.57;;;15.00;99.90;;;;;;5115345;28;20042;-71
2021/07/10 04:25:55;;;;;;;19.67;15.75;;;15.00;99.90;;;;;;5115487;28;20040;-71
2021/07/10 04:28:22;;;;;;;18.13;13.57;;;15.00;99.90;;;;;;5116044;28;20052;-72
2021/07/10 04:30:49;;;;;;;18.83;14.00;;;15.10;99.90;;;;;;5114719;28;20048;-70
2021/07/10 04:33:14;;;;;;;17.00;12.90;;;15.00;99.90;;;;;;5115483;28;20395;-71
2021/07/10 04:35:40;;;;;;;19.17;13.60;;;15.10;99.90;;;;;;5115351;28;20035;-71
2021/07/10 04:38:06;;;;;;;21.05;15.05;;;15.00;99.90;;;;;;5116024;28;20036;-71
2021/07/10 04:40:32;;;;;;;23.92;17.13;;;15.10;99.90;;;;;;5115002;28;20118;-71
2021/07/10 04:42:58;;;;;;;22.63;15.63;;;15.20;99.90;;;;;;5115413;28;20042;-71
2021/07/10 04:45:23;;;;;;;20.17;13.85;;;15.30;99.90;;;;;;5115330;28;20445;-71
2021/07/10 04:47:50;;;;;;;18.75;13.70;;;15.30;99.90;;;;;;5115978;28;20039;-71
2021/07/10 04:50:16;;;;;;;19.88;13.93;;;15.50;99.90;;;;;;5114973;28;20070;-71
2021/07/10 04:52:42;;;;;;;28.38;18.55;;;15.50;99.90;;;;;;5115407;28;20043;-71
2021/07/10 04:55:12;;;;;;;26.90;19.08;;;15.60;99.90;;;;;;5114845;28;20047;-71
2021/07/10 04:57:38;;;;;;;30.73;19.33;;;15.70;99.90;;;;;;5115042;28;20403;-71
2021/07/10 05:00:06;;;;;;;32.05;21.58;;;15.80;99.90;;;;;;5114552;28;20035;-71
2021/07/10 05:02:32;;;;;;;29.58;19.48;;;15.90;99.90;;;;;;5114891;28;20040;-71
2021/07/10 05:04:57;;;;;;;32.72;20.17;;;16.10;99.90;;;;;;5114813;28;20391;-71
2021/07/10 05:07:24;;;;;;;27.40;18.27;;;16.40;99.90;;;;;;5114919;28;20345;-71
2021/07/10 05:09:50;;;;;;;24.02;16.42;;;16.70;99.90;;;;;;5114511;28;20430;-71
2021/07/10 05:12:18;;;;;;;23.80;16.50;;;16.90;99.90;;;;;;5075106;28;1124861;-71
2021/07/10 05:14:43;;;;;;;19.90;14.68;;;17.20;99.90;;;;;;5116100;27;20040;-71
2021/07/10 05:17:09;;;;;;;23.80;14.82;;;17.40;99.90;;;;;;5115695;28;20049;-71
2021/07/10 05:19:35;;;;;;;27.88;18.05;;;17.70;99.90;;;;;;5115306;28;20111;-71
2021/07/10 05:22:00;;;;;;;36.55;21.98;;;18.00;99.90;;;;;;5115573;27;20032;-71
2021/07/10 05:24:26;;;;;;;32.53;21.70;;;18.10;99.90;;;;;;5115038;28;20042;-71
2021/07/10 05:26:52;;;;;;;37.15;22.65;;;18.20;99.90;;;;;;5116058;28;20043;-71
2021/07/10 05:29:17;;;;;;;39.10;24.77;;;18.30;99.90;;;;;;5115023;28;20040;-71
2021/07/10 05:31:44;;;;;;;39.83;25.92;;;18.50;99.90;;;;;;5115933;28;20513;-71
2021/07/10 05:34:09;;;;;;;38.80;25.65;;;18.70;99.90;;;;;;5115275;28;20039;-71
2021/07/10 05:36:35;;;;;;;36.38;24.80;;;18.80;99.90;;;;;;5115763;28;20085;-71
2021/07/10 05:39:01;;;;;;;35.05;24.30;;;19.00;99.90;;;;;;5115105;28;20039;-71
2021/07/10 05:41:26;;;;;;;36.45;24.23;;;18.90;99.90;;;;;;5115156;28;20369;-71
2021/07/10 05:43:52;;;;;;;39.17;24.98;;;18.90;99.90;;;;;;5114539;28;20114;-71
2021/07/10 05:46:18;;;;;;;41.30;25.25;;;18.90;99.90;;;;;;5115011;28;20047;-71
2021/07/10 05:48:43;;;;;;;36.30;24.95;;;18.90;99.90;;;;;;5115168;28;20031;-71
2021/07/10 05:51:09;;;;;;;33.03;23.13;;;19.10;99.90;;;;;;5115034;28;20039;-71
2021/07/10 05:53:35;;;;;;;37.40;23.65;;;19.30;99.90;;;;;;5115052;28;20044;-71
2021/07/10 05:56:00;;;;;;;30.63;22.30;;;19.40;99.90;;;;;;5115109;28;20403;-71
2021/07/10 05:58:26;;;;;;;37.40;24.58;;;19.70;99.90;;;;;;5115006;28;20039;-71
2021/07/10 06:00:52;;;;;;;36.58;22.40;;;19.80;99.90;;;;;;5114700;28;20108;-71
2021/07/10 06:03:17;;;;;;;35.38;23.05;;;20.00;99.90;;;;;;5114821;28;20031;-71
2021/07/10 06:05:43;;;;;;;28.60;20.52;;;20.20;99.90;;;;;;5115141;28;20040;-71
2021/07/10 06:08:09;;;;;;;27.52;19.98;;;20.20;99.90;;;;;;5115479;28;20035;-71
2021/07/10 06:10:38;;;;;;;31.52;21.55;;;20.40;99.90;;;;;;5114539;28;20116;-71
2021/07/10 06:13:04;;;;;;;28.25;20.80;;;20.60;99.90;;;;;;5114587;28;20070;-71
2021/07/10 06:15:30;;;;;;;28.67;20.40;;;20.60;99.90;;;;;;5114781;28;20035;-71
2021/07/10 06:17:55;;;;;;;29.60;20.65;;;20.70;99.90;;;;;;5114703;28;20032;-71
2021/07/10 06:20:22;;;;;;;27.70;19.27;;;20.80;99.90;;;;;;5114433;28;20039;-71
2021/07/10 06:22:49;;;;;;;27.60;20.00;;;20.80;99.90;;;;;;5114376;28;20396;-71
2021/07/10 06:25:36;;;;;;;25.38;18.38;;;20.90;99.90;;;;;;5113307;28;20044;-71
2021/07/10 06:28:07;;;;;;;26.95;20.08;;;20.90;99.90;;;;;;5114478;28;20499;-71
2021/07/10 06:30:33;;;;;;;25.83;19.17;;;21.10;99.90;;;;;;5113902;28;20042;-71
2021/07/10 06:33:00;;;;;;;25.27;18.48;;;21.10;99.90;;;;;;5114341;28;20491;-71
2021/07/10 06:35:26;;;;;;;24.23;17.95;;;21.10;99.90;;;;;;5114899;28;20043;-71
2021/07/10 06:37:51;;;;;;;22.80;17.13;;;21.00;99.90;;;;;;5114684;28;20036;-71
2021/07/10 06:40:19;;;;;;;19.40;15.50;;;20.80;99.90;;;;;;5113896;28;20118;-71
2021/07/10 06:42:46;;;;;;;19.90;14.95;;;20.70;99.90;;;;;;5114195;28;20427;-71
2021/07/10 06:45:15;;;;;;;19.48;14.90;;;20.40;99.90;;;;;;5114468;28;20118;-71
2021/07/10 06:47:41;;;;;;;24.08;15.88;;;20.40;99.90;;;;;;5113352;28;20027;-71
2021/07/10 06:50:10;;;;;;;19.65;15.82;;;20.20;99.90;;;;;;5113828;28;20043;-71
2021/07/10 06:52:36;;;;;;;23.02;16.70;;;20.00;99.90;;;;;;5113926;28;20035;-71
2021/07/10 06:55:04;;;;;;;23.05;15.77;;;20.10;99.90;;;;;;5113985;28;20043;-71
2021/07/10 06:57:29;;;;;;;19.50;15.20;;;20.20;99.90;;;;;;5113806;28;20123;-71
2021/07/10 06:59:55;;;;;;;22.08;16.52;;;20.30;99.90;;;;;;5113830;28;20547;-71
2021/07/10 07:02:21;;;;;;;21.33;15.80;;;20.30;99.90;;;;;;5114071;28;20042;-71
2021/07/10 07:04:46;;;;;;;23.63;17.08;;;20.50;99.90;;;;;;5113797;28;20067;-71
2021/07/10 07:07:12;;;;;;;22.83;16.77;;;20.40;99.90;;;;;;5113935;28;20388;-71
2021/07/10 07:09:37;;;;;;;21.80;16.48;;;20.10;99.90;;;;;;5113379;28;20061;-71
2021/07/10 07:12:04;;;;;;;19.67;14.90;;;19.90;99.90;;;;;;5114240;28;20115;-71
2021/07/10 07:14:30;;;;;;;20.55;14.98;;;19.90;99.90;;;;;;5113896;28;20036;-70
2021/07/10 07:16:58;;;;;;;21.50;15.52;;;19.70;99.90;;;;;;5113802;28;20039;-71
2021/07/10 07:19:30;;;;;;;22.48;15.00;;;19.80;99.90;;;;;;5113489;28;20039;-71
2021/07/10 07:21:56;;;;;;;21.02;14.68;;;19.80;99.90;;;;;;5113681;28;20110;-70
2021/07/10 07:24:22;;;;;;;16.75;12.88;;;19.70;99.90;;;;;;5114035;28;20040;-70
2021/07/10 07:26:48;;;;;;;18.00;12.68;;;19.70;99.90;;;;;;5113519;28;20403;-70
2021/07/10 07:29:15;;;;;;;16.30;12.57;;;19.60;99.90;;;;;;5113318;28;20376;-70
2021/07/10 07:31:40;;;;;;;15.45;12.23;;;19.60;99.90;;;;;;5113727;28;20047;-70
2021/07/10 07:34:07;;;;;;;15.82;11.07;;;19.50;99.90;;;;;;5113754;28;20483;-70
2021/07/10 07:36:32;;;;;;;15.43;11.70;;;19.50;99.90;;;;;;5113721;28;20043;-70
2021/07/10 07:38:59;;;;;;;19.13;13.55;;;19.40;99.90;;;;;;5113320;28;20039;-70
2021/07/10 07:41:24;;;;;;;15.25;12.10;;;19.50;99.90;;;;;;5113693;28;20039;-70
2021/07/10 07:43:50;;;;;;;16.17;11.85;;;19.50;99.90;;;;;;5113270;28;20380;-69
2021/07/10 07:46:16;;;;;;;14.48;9.98;;;19.60;99.90;;;;;;5113546;28;20039;-70
2021/07/10 07:48:43;;;;;;;13.20;9.55;;;19.60;99.90;;;;;;5113667;28;20061;-71
2021/07/10 07:51:15;;;;;;;11.68;9.77;;;19.60;99.90;;;;;;5113927;28;20483;-69
2021/07/10 07:53:42;;;;;;;12.68;9.73;;;19.60;99.90;;;;;;5113536;28;20039;-70
2021/07/10 07:56:09;;;;;;;13.18;9.98;;;19.60;99.90;;;;;;5113347;28;20070;-70
2021/07/10 07:58:35;;;;;;;12.85;9.98;;;19.40;99.90;;;;;;5112879;28;20372;-71
2021/07/10 08:01:00;;;;;;;12.73;9.55;;;19.40;99.90;;;;;;5113748;28;20126;-71
2021/07/10 08:03:26;;;;;;;10.27;8.77;;;19.40;99.90;;;;;;5113320;28;20403;-71
2021/07/10 08:05:52;;;;;;;9.63;7.35;;;19.40;99.90;;;;;;5114150;28;20044;-71
2021/07/10 08:08:17;;;;;;;9.02;7.75;;;19.30;99.90;;;;;;5117262;28;20035;-70
2021/07/10 08:10:43;;;;;;;10.30;6.97;;;19.30;99.90;;;;;;5116618;28;20035;-71
2021/07/10 08:13:09;;;;;;;10.73;5.88;;;19.20;99.90;;;;;;5117245;28;20046;-70
2021/07/10 08:15:35;;;;;;;7.97;6.20;;;19.40;99.90;;;;;;5117407;28;20040;-70
2021/07/10 08:18:00;;;;;;;7.32;6.10;;;19.60;99.90;;;;;;5116865;27;20046;-70
2021/07/10 08:20:26;;;;;;;6.63;5.93;;;19.70;99.90;;;;;;5116635;27;20047;-70
2021/07/10 08:22:52;;;;;;;9.85;6.63;;;19.90;99.90;;;;;;5116061;28;20100;-70
2021/07/10 08:25:18;;;;;;;9.18;6.28;;;19.40;99.90;;;;;;5117073;28;20055;-71
2021/07/10 08:27:44;;;;;;;7.15;5.28;;;19.60;99.90;;;;;;5116539;28;20036;-71
2021/07/10 08:30:13;;;;;;;8.65;5.88;;;19.80;99.90;;;;;;5116606;28;20114;-71
2021/07/10 08:32:39;;;;;;;7.00;6.30;;;19.80;99.90;;;;;;5117384;27;20035;-69
2021/07/10 08:35:06;;;;;;;12.00;6.80;;;19.70;99.90;;;;;;5115247;28;20043;-71
2021/07/10 08:37:31;;;;;;;7.70;6.47;;;19.90;99.90;;;;;;5116374;28;20031;-71
2021/07/10 08:39:57;;;;;;;8.35;5.93;;;20.00;99.90;;;;;;5115878;28;20028;-70
2021/07/10 08:42:23;;;;;;;7.63;5.65;;;20.10;99.90;;;;;;5116682;28;20036;-71
2021/07/10 08:44:51;;;;;;;7.25;5.78;;;20.40;99.90;;;;;;5116439;28;20373;-71
2021/07/10 08:47:17;;;;;;;7.43;6.13;;;20.40;99.20;;;;;;5116098;28;20403;-71
2021/07/10 08:49:44;;;;;;;6.90;5.57;;;20.60;99.10;;;;;;5115941;28;20073;-69
2021/07/10 08:52:10;;;;;;;5.95;5.35;;;20.70;99.50;;;;;;5106270;28;20066;-70
2021/07/10 08:54:37;;;;;;;9.55;6.63;;;20.70;99.70;;;;;;5105553;28;20512;-70
2021/07/10 08:57:04;;;;;;;7.97;6.35;;;20.70;98.70;;;;;;5104911;28;20032;-69
2021/07/10 08:59:29;;;;;;;8.98;6.35;;;20.60;97.70;;;;;;5103213;28;20044;-69
2021/07/10 09:01:56;;;;;;;8.60;6.82;;;20.50;98.00;;;;;;5104155;28;20494;-69
2021/07/10 09:04:23;;;;;;;7.20;5.80;;;20.30;98.30;;;;;;5104728;28;20040;-69
2021/07/10 09:06:49;;;;;;;8.40;6.50;;;20.30;99.10;;;;;;5103354;28;20110;-71
2021/07/10 09:09:14;;;;;;;7.75;6.80;;;20.50;99.90;;;;;;5105914;28;20376;-71
2021/07/10 09:11:40;;;;;;;8.25;6.32;;;20.60;99.80;;;;;;5115870;28;20032;-71
2021/07/10 09:14:06;;;;;;;9.27;6.95;;;20.60;99.10;;;;;;5116199;28;20047;-71
2021/07/10 09:16:35;;;;;;;8.93;6.32;;;20.70;99.90;;;;;;5115305;28;20031;-71
2021/07/10 09:19:07;;;;;;;9.20;6.25;;;20.70;99.90;;;;;;5114285;28;20036;-71
2021/07/10 09:21:34;;;;;;;8.95;6.47;;;20.80;99.90;;;;;;5115727;28;20042;-72
2021/07/10 09:24:00;;;;;;;8.13;6.10;;;21.00;99.90;;;;;;5115177;28;20082;-71
2021/07/10 09:26:27;;;;;;;10.65;6.70;;;21.10;99.90;;;;;;5115599;28;20460;-71
2021/07/10 09:29:08;;;;;;;7.75;5.80;;;21.50;98.90;;;;;;5115557;28;20131;-72
2021/07/10 09:31:38;;;;;;;9.20;6.10;;;21.90;97.00;;;;;;5115773;28;20063;-71
2021/07/10 09:34:13;;;;;;;9.35;6.45;;;22.10;96.90;;;;;;5114835;28;20123;-72
2021/07/10 09:36:56;;;;;;;6.43;5.78;;;22.20;95.30;;;;;;5115101;28;20059;-70
2021/07/10 09:39:23;;;;;;;7.35;6.15;;;22.30;96.40;;;;;;5115222;28;20039;-71
2021/07/10 09:41:49;;;;;;;9.95;6.40;;;22.10;96.30;;;;;;5115690;28;20035;-71
2021/07/10 09:44:16;;;;;;;8.52;7.20;;;22.10;97.40;;;;;;5115333;28;20042;-71
2021/07/10 09:46:42;;;;;;;8.43;6.50;;;22.00;97.90;;;;;;5115268;28;20089;-70
2021/07/10 09:49:26;;;;;;;8.68;6.90;;;21.80;96.70;;;;;;5114974;28;20111;-71
2021/07/10 09:52:04;;;;;;;10.32;8.05;;;21.60;96.80;;;;;;5114995;28;20566;-71
2021/07/10 09:54:36;;;;;;;8.63;6.43;;;21.40;98.40;;;;;;5115190;28;20039;-71
2021/07/10 09:57:14;;;;;;;12.20;7.20;;;21.20;96.60;;;;;;5114827;28;20027;-71
2021/07/10 09:59:49;;;;;;;9.00;6.07;;;21.00;97.00;;;;;;5114828;28;20376;-71
2021/07/10 10:02:51;;;;;;;8.80;7.32;;;21.10;96.80;;;;;;5114593;28;20035;-70
2021/07/10 10:05:21;;;;;;;12.07;6.65;;;21.30;94.80;;;;;;5112693;28;20066;-70
2021/07/10 10:07:47;;;;;;;7.53;6.32;;;21.20;96.70;;;;;;5114674;28;20074;-70
2021/07/10 10:10:24;;;;;;;7.00;5.78;;;21.00;97.10;;;;;;5114378;28;20035;-71
2021/07/10 10:13:05;;;;;;;9.10;6.40;;;21.00;97.00;;;;;;5114822;27;20039;-72
2021/07/10 10:15:43;;;;;;;8.85;7.43;;;21.00;96.50;;;;;;5114492;28;20407;-71
2021/07/10 10:18:11;;;;;;;11.35;7.97;;;21.00;95.90;;;;;;5114938;28;20114;-71
2021/07/10 10:20:38;;;;;;;13.27;7.95;;;20.90;95.70;;;;;;5114158;28;20418;-71
2021/07/10 10:23:08;;;;;;;10.82;8.75;;;20.90;95.50;;;;;;5113250;28;20038;-71
2021/07/10 10:25:34;;;;;;;12.38;8.27;;;21.00;95.50;;;;;;5114396;28;20105;-71
2021/07/10 10:28:03;;;;;;;9.15;6.82;;;21.10;94.90;;;;;;5114662;28;20064;-71
2021/07/10 10:30:29;;;;;;;8.85;6.10;;;21.10;95.20;;;;;;5113917;28;20410;-70
2021/07/10 10:32:55;;;;;;;8.43;6.13;;;21.10;95.60;;;;;;5114691;28;20036;-70
2021/07/10 10:35:21;;;;;;;6.85;5.38;;;21.00;96.00;;;;;;5113984;28;20043;-70
2021/07/10 10:37:47;;;;;;;10.75;6.25;;;21.00;96.10;;;;;;5114659;28;20043;-70
2021/07/10 10:40:16;;;;;;;6.95;5.97;;;21.10;94.60;;;;;;5113689;28;20495;-71
2021/07/10 10:42:45;;;;;;;7.18;5.57;;;21.20;96.90;;;;;;5114433;28;20038;-70
2021/07/10 10:45:12;;;;;;;10.23;6.32;;;21.30;97.90;;;;;;5113402;28;20090;-71
2021/07/10 10:47:41;;;;;;;7.38;6.28;;;21.20;95.20;;;;;;5114066;28;20110;-70
2021/07/10 10:50:17;;;;;;;8.27;6.15;;;21.30;95.00;;;;;;5113583;28;20038;-70
2021/07/10 10:52:45;;;;;;;7.25;5.60;;;21.10;95.10;;;;;;5114064;28;20043;-71
2021/07/10 10:55:19;;;;;;;7.70;5.60;;;21.20;98.00;;;;;;5114366;28;20375;-70
2021/07/10 10:57:49;;;;;;;8.68;5.70;;;21.50;98.70;;;;;;5114234;28;20042;-70
2021/07/10 11:00:33;;;;;;;8.50;6.65;;;21.50;98.90;;;;;;5113260;28;20036;-71
2021/07/10 11:03:20;;;;;;;6.22;5.57;;;21.70;97.10;;;;;;5113789;28;20430;-70
2021/07/10 11:05:47;;;;;;;9.98;6.50;;;22.00;96.50;;;;;;5113019;28;20046;-71
2021/07/10 11:08:19;;;;;;;7.47;5.53;;;22.20;97.60;;;;;;5113828;28;20035;-71
2021/07/10 11:11:05;;;;;;;8.18;6.80;;;22.30;95.60;;;;;;5113238;28;20036;-69
2021/07/10 11:13:39;;;;;;;7.35;6.30;;;22.30;93.90;;;;;;5106177;28;20526;-70
2021/07/10 11:16:19;;;;;;;12.23;7.88;;;22.30;93.80;;;;;;5113664;28;20044;-69
2021/07/10 11:19:03;;;;;;;10.00;6.38;;;22.20;93.30;;;;;;5113270;28;20046;-71
2021/07/10 11:21:32;;;;;;;10.07;6.85;;;22.20;93.40;;;;;;5111882;28;20065;-71
2021/07/10 11:24:16;;;;;;;10.15;6.65;;;22.30;93.30;;;;;;5112955;28;20039;-71
2021/07/10 11:26:54;;;;;;;7.78;5.68;;;22.40;92.90;;;;;;5113082;28;20520;-71
2021/07/10 11:29:26;;;;;;;9.00;6.65;;;22.60;93.40;;;;;;5112678;28;20096;-71
2021/07/10 11:31:54;;;;;;;7.78;6.60;;;22.50;93.00;;;;;;5112877;28;20065;-71
2021/07/10 11:34:32;;;;;;;8.90;6.97;;;22.50;91.70;;;;;;5113031;28;20536;-71
2021/07/10 11:36:59;;;;;;;6.85;5.68;;;22.60;90.90;;;;;;5112622;28;20043;-71
2021/07/10 11:39:32;;;;;;;9.00;5.57;;;22.50;91.20;;;;;;5113615;28;20376;-71
2021/07/10 11:42:18;;;;;;;7.22;5.85;;;22.10;92.20;;;;;;5116159;28;20380;-71
2021/07/10 11:44:46;;;;;;;6.68;5.97;;;22.10;93.60;;;;;;5117349;28;20444;-71
2021/07/10 11:47:13;;;;;;;8.73;6.07;;;22.00;94.20;;;;;;5117414;28;20096;-71
2021/07/10 11:49:42;;;;;;;8.75;6.80;;;21.60;94.50;;;;;;5117336;27;20042;-71
2021/07/10 11:52:15;;;;;;;6.65;5.93;;;21.40;94.50;;;;;;5117690;28;20038;-71
2021/07/10 11:54:46;;;;;;;7.60;5.65;;;21.50;94.10;;;;;;5117942;28;20074;-71
2021/07/10 11:57:13;;;;;;;6.97;5.97;;;21.60;93.50;;;;;;5117232;28;20047;-71
2021/07/10 11:59:40;;;;;;;7.25;6.20;;;21.50;93.20;;;;;;5117171;28;20096;-71
2021/07/10 12:02:16;;;;;;;9.63;5.75;;;21.40;93.00;;;;;;5116934;28;20035;-71
2021/07/10 12:05:00;;;;;;;7.05;6.30;;;21.20;94.00;;;;;;5117300;28;20483;-71
2021/07/10 12:07:27;;;;;;;8.50;5.55;;;21.20;93.50;;;;;;5117021;28;20514;-71
2021/07/10 12:09:54;;;;;;;9.05;5.70;;;21.10;94.40;;;;;;5115437;28;20475;-71
2021/07/10 12:12:20;;;;;;;9.55;6.15;;;21.30;93.90;;;;;;5116693;28;20410;-71
2021/07/10 12:14:53;;;;;;;7.13;5.50;;;21.30;93.90;;;;;;5117132;28;20532;-71
2021/07/10 12:17:20;;;;;;;8.02;5.85;;;21.20;94.70;;;;;;5116677;28;20130;-71
2021/07/10 12:19:50;;;;;;;9.45;6.15;;;21.50;94.30;;;;;;5116370;28;20403;-71
2021/07/10 12:22:20;;;;;;;7.47;6.65;;;21.50;94.20;;;;;;5117011;28;20036;-71
2021/07/10 12:24:46;;;;;;;8.30;6.53;;;21.50;94.30;;;;;;5116790;28;20115;-71
2021/07/10 12:27:16;;;;;;;6.85;6.15;;;21.50;93.70;;;;;;5116876;28;20441;-71
2021/07/10 12:29:53;;;;;;;8.30;6.55;;;21.60;93.40;;;;;;5116226;28;20039;-71
2021/07/10 12:32:19;;;;;;;9.57;6.95;;;21.50;93.50;;;;;;5116286;28;20031;-71
2021/07/10 12:34:49;;;;;;;10.00;6.28;;;21.60;93.50;;;;;;5116328;28;20047;-71
2021/07/10 12:37:41;;;;;;;9.88;7.00;;;21.50;93.10;;;;;;5116343;28;20403;-71